Terminal Aerodrome Forecast
Issued by NWS

Home | Current Version | Previous Version | Graphics & Text | Print | Product List | Glossary On
Versions: 1 2 3 4 5 6 7 8 9 10 11 12 13 14 15 16
000
FTUS43 KBIS 141100
TAFMOT
TAF
KMOT 141138Z 1412/1512 28010KT P6SM SCT025 BKN040
      TEMPO 1412/1414 BKN025
     FM141700 29007KT P6SM SCT080
     FM150100 VRB04KT P6SM SKC=

USA.gov is the U.S. government's official web portal to all federal, state and local government web resources and services.